Albion, Ohio
Current Conditions -  °F | °C
As of 12:56 PM on Thursday 18 Dec 2014 (Local Time) from KBJJ Reporting Station
Overcast Overcast  
Wind Chill: -8°   Ceiling: 1600
Heat Index: -3°   Visibility: 10mi
Dew Point: -6°   Wind: 9mph
Humidity: 78%   Direction: 280°W
Pressure: 30.18"   Gusts: NA
Location:  40.9441°N, 82.1006°W
Report Text: KBJJ 181756Z AUTO 28008KT 10SM OVC016 M03/M06 A3018 RMK AO2 SLP234 T10281061 11022 21028 58013 TSNO
Loading
Personal Weather Stations






























Interactive Weather Map New forecast layout! Learn more

10-Day Weather Forecast

Advertisements
Track Severe Weather on mobile